METAR AND TAF INFORMATION
METAR FOR LEGE
ADDS - METARS form results

(2250 UTC 24 October 2020)
Data provider http://aviationweather.gov/metar/data/
 
METAR text: LEGE 242230Z 20011KT CAVOK 13/08 Q1016
Conditions at: LEGE (GERONA/COSTA BRA, ES) observed 2230 UTC 24 October 2020
Temperature: 13.0°C (55°F)
Dewpoint: 8.0°C (46°F) [RH = 72%]
Pressure (altimeter): 30.00 inches Hg (1016.0 mb)
Winds: from the SSW (200 degrees) at 13 MPH (11 knots; 5.7 m/s)
Visibility: 6 or more miles (10+ km)
Ceiling: ceiling and visibility are OK
Clouds: unknown
Weather: no significant weather observed at this time

METAR text: LEGE 242200Z 21007KT CAVOK 12/08 Q1017
Conditions at: LEGE (GERONA/COSTA BRA, ES) observed 2200 UTC 24 October 2020
Temperature: 12.0°C (54°F)
Dewpoint: 8.0°C (46°F) [RH = 76%]
Pressure (altimeter): 30.03 inches Hg (1017.0 mb)
Winds: from the SSW (210 degrees) at 8 MPH (7 knots; 3.6 m/s)
Visibility: 6 or more miles (10+ km)
Ceiling: ceiling and visibility are OK
Clouds: unknown
Weather: no significant weather observed at this time

Forecast for: LEGE (GERONA/COSTA BRA, ES)
Text: TAF LEGE 241700Z 2418/2518 VRB04KT 9999 FEW030 TX25/2514Z TN13/2506Z
Forecast period: 1800 UTC 24 October 2020 to 1000 UTC 25 October 2020
Forecast type: FROM: standard forecast or significant change
Winds: variable direction winds at 5 MPH (4 knots; 2.1 m/s)
Visibility: 6 or more miles (10+ km)
Ceiling: at least 12,000 feet AGL
Clouds: few clouds at 3000 feet AGL
Weather: no significant weather forecast for this period
Text: TEMPO 2421/2510 21009KT
Forecast period: 2100 UTC 24 October 2020 to 1000 UTC 25 October 2020
Forecast type: TEMPORARY: The following changes expected for less than half the time period
Winds: from the SSW (210 degrees) at 10 MPH (9 knots; 4.6 m/s)
Visibility: missing
Ceiling: unknown
Clouds: missing
Weather: no significant weather forecast for this period
Text: BECMG 2510/2512 24015G27KT
Forecast period: 1000 to 1800 UTC 25 October 2020
Forecast type: BECOMING: Conditions expected to become as follows by 1200 UTC 25 October 2020
Winds: from the WSW (240 degrees) at 17 MPH (15 knots; 7.7 m/s)
gusting to 31 MPH (27 knots; 13.9 m/s)
Visibility: 6 or more miles (10+ km)
Ceiling: at least 12,000 feet AGL
Clouds: few clouds at 3000 feet AGL
Weather: no significant weather forecast for this period

 AIRPORT MAP

 RUNWAY INFORMATION
Runway 02 Runway length 7874 ft Runway width 148 ft
Runway elevation 403 ft Runway displaced threshold 0 ft Runway heading 16
Runway 20 Runway length 7874 ft Runway width 148 ft
Runway elevation 468 ft Runway displaced threshold 0 ft Runway heading 196

 AIRPORT FREQUENCIES
Type APP Name APP Frequency 120.9 MHZ
Type GND Name GND Frequency 121.7 MHZ
Type TWR Name TWR Frequency 118.5 MHZ

 AIRPORT NEAR NAVIGATION AIDS
Type VOR-DME Name Gerona Frequency 114100 KHZ
Type NDB Name Gerona Frequency 412 KHZ



Powered by Virtual Airlines Manager [v2.6.2]